createdAt,value
2019-04-14T00:02:01.658Z,99.90
2019-04-14T00:04:44.406Z,99.90
2019-04-14T00:07:16.550Z,99.90
2019-04-14T00:09:50.581Z,99.90
2019-04-14T00:12:22.901Z,99.90
2019-04-14T00:14:55.445Z,99.90
2019-04-14T00:17:28.479Z,99.90
2019-04-14T00:19:58.798Z,99.90
2019-04-14T00:22:30.647Z,99.90
2019-04-14T00:25:02.426Z,99.90
2019-04-14T00:27:34.478Z,99.90
2019-04-14T00:30:05.566Z,99.90
2019-04-14T00:32:37.937Z,99.90
2019-04-14T00:35:36.323Z,99.90
2019-04-14T00:38:30.131Z,99.90
2019-04-14T00:41:14.007Z,99.90
2019-04-14T00:44:03.541Z,99.90
2019-04-14T00:46:40.996Z,99.90
2019-04-14T00:49:11.529Z,99.90
2019-04-14T00:51:42.444Z,99.90
2019-04-14T00:54:11.821Z,99.90
2019-04-14T00:56:46.174Z,99.90
2019-04-14T00:59:24.526Z,99.90
2019-04-14T01:01:56.953Z,99.90
2019-04-14T01:04:31.642Z,99.90
2019-04-14T01:07:04.413Z,99.90
2019-04-14T01:09:36.913Z,99.90
2019-04-14T01:12:15.382Z,99.90
2019-04-14T01:14:45.328Z,99.90
2019-04-14T01:17:17.719Z,99.90
2019-04-14T01:19:52.684Z,99.90
2019-04-14T01:22:24.904Z,99.90
2019-04-14T01:24:57.464Z,99.90
2019-04-14T01:27:29.934Z,99.90
2019-04-14T01:30:00.379Z,99.90
2019-04-14T01:32:33.511Z,99.90
2019-04-14T01:35:05.445Z,99.90
2019-04-14T01:37:37.609Z,99.90
2019-04-14T01:40:09.937Z,99.90
2019-04-14T01:42:44.187Z,99.90
2019-04-14T01:45:16.361Z,99.90
2019-04-14T01:47:47.129Z,99.90
2019-04-14T01:50:19.187Z,99.90
2019-04-14T01:53:03.211Z,99.90
2019-04-14T02:16:21.902Z,99.90
2019-04-14T02:22:31.225Z,99.90
2019-04-14T02:25:18.764Z,99.90
2019-04-14T02:28:06.862Z,99.90
2019-04-14T02:31:03.358Z,99.90
2019-04-14T02:36:32.249Z,99.90
2019-04-14T02:39:06.395Z,99.90
2019-04-14T02:41:35.948Z,99.90
2019-04-14T02:44:12.154Z,99.90
2019-04-14T02:49:51.396Z,99.90
2019-04-14T02:52:28.217Z,99.90
2019-04-14T02:55:50.440Z,99.90
2019-04-14T03:01:26.063Z,99.90
2019-04-14T03:03:50.739Z,99.90
2019-04-14T03:06:18.355Z,99.90
2019-04-14T03:09:15.376Z,99.90
2019-04-14T03:11:34.449Z,99.90
2019-04-14T03:14:15.585Z,99.90
2019-04-14T03:17:21.210Z,99.90
2019-04-14T03:22:55.728Z,99.90
2019-04-14T03:25:33.680Z,99.90
2019-04-14T03:28:31.848Z,99.90
2019-04-14T03:31:39.093Z,99.90
2019-04-14T03:37:04.823Z,99.90
2019-04-14T03:39:03.511Z,99.90
2019-04-14T03:46:55.477Z,99.90
2019-04-14T03:52:55.741Z,99.90
2019-04-14T03:55:05.731Z,99.90
2019-04-14T03:57:19.957Z,99.90
2019-04-14T03:59:49.980Z,99.90
2019-04-14T04:02:22.668Z,99.90
2019-04-14T04:04:56.250Z,99.90
2019-04-14T04:07:30.173Z,99.90
2019-04-14T04:10:09.445Z,99.90
2019-04-14T04:12:48.631Z,99.90
2019-04-14T04:15:19.235Z,99.90
2019-04-14T04:17:55.962Z,99.90
2019-04-14T04:20:37.084Z,99.90
2019-04-14T04:23:20.481Z,99.90
2019-04-14T04:25:59.575Z,99.90
2019-04-14T04:28:49.644Z,99.90
2019-04-14T04:31:39.510Z,99.90
2019-04-14T04:34:14.178Z,99.90
2019-04-14T04:37:21.744Z,99.90
2019-04-14T04:39:52.000Z,99.90
2019-04-14T04:42:21.975Z,99.90
2019-04-14T04:44:53.272Z,99.90
2019-04-14T04:47:23.129Z,99.90
2019-04-14T04:49:53.364Z,99.90
2019-04-14T04:52:25.806Z,99.90
2019-04-14T04:54:55.910Z,99.90
2019-04-14T04:57:26.652Z,99.90
2019-04-14T04:59:58.106Z,99.90
2019-04-14T05:02:28.703Z,99.90
2019-04-14T05:04:59.125Z,99.90
2019-04-14T05:07:29.533Z,99.90
2019-04-14T05:10:19.546Z,99.90
2019-04-14T05:12:54.596Z,99.90
2019-04-14T05:15:51.065Z,99.90
2019-04-14T05:18:24.521Z,99.90
2019-04-14T05:20:55.402Z,99.90
2019-04-14T05:23:32.159Z,99.90
2019-04-14T05:26:02.686Z,99.90
2019-04-14T05:28:33.175Z,99.90
2019-04-14T05:31:03.714Z,99.90
2019-04-14T05:33:34.311Z,99.90
2019-04-14T05:36:04.214Z,99.90
2019-04-14T05:38:37.035Z,99.90
2019-04-14T05:41:09.113Z,99.90
2019-04-14T05:43:48.204Z,99.90
2019-04-14T05:46:12.067Z,99.90
2019-04-14T05:48:42.695Z,99.90
2019-04-14T05:51:15.385Z,99.90
2019-04-14T05:53:48.059Z,99.90
2019-04-14T05:56:20.617Z,99.90
2019-04-14T05:58:54.301Z,99.90
2019-04-14T06:01:27.045Z,99.90
2019-04-14T06:03:56.597Z,99.90
2019-04-14T06:06:26.014Z,99.90
2019-04-14T06:08:55.754Z,99.90
2019-04-14T06:11:26.381Z,99.90
2019-04-14T06:13:57.250Z,99.90
2019-04-14T06:16:28.032Z,99.90
2019-04-14T06:19:00.441Z,99.90
2019-04-14T06:21:34.370Z,99.90
2019-04-14T06:24:04.041Z,99.90
2019-04-14T06:26:39.135Z,99.90
2019-04-14T06:29:09.753Z,99.90
2019-04-14T06:32:04.328Z,99.90
2019-04-14T06:35:26.501Z,99.90
2019-04-14T06:38:05.836Z,99.90
2019-04-14T06:41:10.344Z,99.90
2019-04-14T06:43:48.628Z,99.90
2019-04-14T06:46:13.881Z,99.90
2019-04-14T06:48:43.553Z,99.90
2019-04-14T06:51:15.126Z,99.90
2019-04-14T06:53:44.969Z,99.90
2019-04-14T06:56:14.503Z,99.90
2019-04-14T06:58:51.279Z,99.90
2019-04-14T07:01:21.023Z,99.90
2019-04-14T07:03:55.514Z,99.90
2019-04-14T07:06:27.004Z,99.90
2019-04-14T07:08:58.437Z,99.90
2019-04-14T07:11:36.664Z,99.90
2019-04-14T07:14:07.325Z,99.90
2019-04-14T07:16:38.024Z,99.90
2019-04-14T07:19:09.915Z,99.90
2019-04-14T07:21:39.444Z,99.90
2019-04-14T07:24:14.219Z,99.90
2019-04-14T07:26:43.868Z,99.90
2019-04-14T07:29:14.947Z,99.90
2019-04-14T07:32:03.688Z,99.90
2019-04-14T07:34:52.182Z,99.90
2019-04-14T07:37:40.993Z,99.90
2019-04-14T07:40:40.849Z,99.90
2019-04-14T07:43:19.784Z,99.90
2019-04-14T07:46:13.336Z,99.90
2019-04-14T07:49:04.956Z,99.90
2019-04-14T07:51:41.412Z,99.90
2019-04-14T07:54:17.679Z,99.90
2019-04-14T07:56:58.734Z,99.90
2019-04-14T07:59:48.690Z,99.90
2019-04-14T08:02:31.274Z,99.90
2019-04-14T08:05:08.252Z,99.90
2019-04-14T08:07:39.769Z,99.90
2019-04-14T08:10:09.374Z,99.90
2019-04-14T08:12:38.758Z,99.90
2019-04-14T08:15:17.570Z,99.90
2019-04-14T08:17:48.213Z,99.90
2019-04-14T08:20:27.399Z,99.90
2019-04-14T08:22:53.614Z,99.90
2019-04-14T08:25:29.148Z,99.90
2019-04-14T08:27:58.884Z,99.90
2019-04-14T08:30:28.282Z,99.90
2019-04-14T08:32:57.975Z,99.90
2019-04-14T08:35:29.577Z,99.90
2019-04-14T08:38:01.263Z,99.90
2019-04-14T08:40:31.918Z,99.90
2019-04-14T08:43:33.413Z,99.90
2019-04-14T08:46:08.643Z,99.90
2019-04-14T08:49:17.209Z,99.90
2019-04-14T08:51:57.755Z,99.90
2019-04-14T08:54:52.149Z,99.90
2019-04-14T08:57:43.827Z,99.90
2019-04-14T09:00:21.980Z,99.90
2019-04-14T09:03:11.482Z,99.90
2019-04-14T09:06:00.788Z,99.90
2019-04-14T09:08:34.443Z,99.90
2019-04-14T09:11:05.487Z,99.90
2019-04-14T09:16:41.256Z,99.90
2019-04-14T09:19:25.537Z,99.90
2019-04-14T09:22:00.901Z,99.90
2019-04-14T09:24:38.553Z,99.90
2019-04-14T09:27:21.854Z,99.90
2019-04-14T09:29:52.598Z,99.90
2019-04-14T09:32:27.452Z,99.90
2019-04-14T09:34:57.750Z,99.90
2019-04-14T09:37:39.065Z,99.90
2019-04-14T09:40:08.943Z,99.90
2019-04-14T09:42:47.870Z,99.90
2019-04-14T09:45:30.280Z,99.90
2019-04-14T09:48:04.770Z,99.90
2019-04-14T09:50:34.825Z,99.90
2019-04-14T09:53:10.160Z,99.90
2019-04-14T09:55:39.896Z,99.90
2019-04-14T09:58:11.399Z,99.90
2019-04-14T10:00:48.700Z,99.90
2019-04-14T10:03:35.309Z,99.90
2019-04-14T10:06:35.301Z,99.90
2019-04-14T10:09:06.543Z,99.90
2019-04-14T10:12:28.473Z,99.90
2019-04-14T10:14:59.063Z,99.90
2019-04-14T10:17:42.175Z,99.90
2019-04-14T10:20:11.787Z,99.90
2019-04-14T10:22:43.506Z,99.90
2019-04-14T10:25:18.584Z,99.90
2019-04-14T10:27:49.211Z,99.90
2019-04-14T10:30:19.830Z,99.90
2019-04-14T10:32:57.059Z,99.90
2019-04-14T10:35:27.318Z,99.90
2019-04-14T10:37:56.723Z,99.90
2019-04-14T10:40:26.413Z,99.90
2019-04-14T10:43:04.963Z,99.90
2019-04-14T10:45:39.568Z,99.90
2019-04-14T10:48:09.219Z,99.90
2019-04-14T10:50:38.793Z,99.90
2019-04-14T10:53:09.355Z,99.90
2019-04-14T10:55:40.883Z,99.90
2019-04-14T10:58:11.303Z,99.90
2019-04-14T11:00:41.554Z,99.90
2019-04-14T11:03:11.039Z,99.90
2019-04-14T11:05:51.609Z,99.90
2019-04-14T11:08:23.236Z,99.90
2019-04-14T11:10:52.750Z,99.90
2019-04-14T11:13:22.628Z,99.90
2019-04-14T11:15:53.418Z,99.90
2019-04-14T11:18:25.021Z,99.90
2019-04-14T11:20:54.462Z,99.90
2019-04-14T11:23:24.158Z,99.90
2019-04-14T11:25:54.147Z,99.90
2019-04-14T11:28:24.576Z,99.90
2019-04-14T11:30:55.920Z,99.90
2019-04-14T11:33:33.049Z,99.90
2019-04-14T11:36:22.062Z,99.90
2019-04-14T11:38:58.663Z,99.90
2019-04-14T11:41:30.144Z,99.90
2019-04-14T11:44:04.019Z,99.90
2019-04-14T11:46:34.524Z,99.90
2019-04-14T11:49:06.157Z,99.90
2019-04-14T11:51:36.401Z,99.90
2019-04-14T11:54:07.989Z,99.90
2019-04-14T11:56:40.272Z,99.90
2019-04-14T11:59:12.449Z,99.90
2019-04-14T12:02:06.550Z,99.90
2019-04-14T12:05:05.194Z,99.90
2019-04-14T12:07:50.686Z,99.90
2019-04-14T12:10:26.076Z,99.90
2019-04-14T12:12:57.910Z,99.90
2019-04-14T12:15:34.474Z,99.90
2019-04-14T12:18:12.837Z,99.90
2019-04-14T12:20:44.388Z,99.90
2019-04-14T12:23:22.739Z,99.90
2019-04-14T12:26:04.752Z,99.90
2019-04-14T12:28:26.202Z,99.90
2019-04-14T12:31:15.283Z,99.90
2019-04-14T12:33:46.809Z,99.90
2019-04-14T12:36:18.703Z,99.90
2019-04-14T12:38:58.913Z,99.90
2019-04-14T12:41:37.662Z,99.90
2019-04-14T12:44:30.525Z,99.90
2019-04-14T12:47:22.885Z,99.90
2019-04-14T12:50:00.810Z,99.50
2019-04-14T12:52:33.211Z,98.70
2019-04-14T12:55:06.525Z,97.90
2019-04-14T12:57:48.897Z,99.70
2019-04-14T13:00:45.879Z,99.30
2019-04-14T13:03:17.444Z,98.30
2019-04-14T13:05:52.017Z,96.90
2019-04-14T13:08:25.837Z,96.70
2019-04-14T13:10:58.419Z,98.00
2019-04-14T13:13:37.842Z,97.00
2019-04-14T13:16:09.862Z,96.70
2019-04-14T13:18:41.390Z,94.80
2019-04-14T13:21:13.171Z,96.00
2019-04-14T13:23:44.081Z,96.50
2019-04-14T13:26:13.505Z,96.80
2019-04-14T13:28:43.048Z,96.90
2019-04-14T13:31:12.686Z,97.40
2019-04-14T13:33:44.470Z,96.80
2019-04-14T13:36:14.873Z,96.20
2019-04-14T13:38:44.379Z,95.40
2019-04-14T13:41:14.050Z,96.20
2019-04-14T13:43:44.906Z,95.30
2019-04-14T13:46:16.445Z,95.70
2019-04-14T13:48:48.182Z,95.70
2019-04-14T13:51:18.516Z,95.20
2019-04-14T13:53:49.902Z,95.70
2019-04-14T13:56:19.175Z,94.70
2019-04-14T13:58:56.482Z,94.00
2019-04-14T14:01:29.092Z,94.00
2019-04-14T14:03:59.544Z,93.20
2019-04-14T14:06:29.369Z,94.50
2019-04-14T14:08:58.954Z,93.80
2019-04-14T14:11:38.905Z,92.80
2019-04-14T14:14:40.595Z,93.80
2019-04-14T14:17:27.442Z,92.50
2019-04-14T14:20:20.594Z,93.10
2019-04-14T14:23:11.780Z,92.60
2019-04-14T14:25:52.262Z,92.40
2019-04-14T14:28:21.825Z,92.90
2019-04-14T14:33:54.779Z,94.00
2019-04-14T14:36:26.642Z,93.60
2019-04-14T14:38:58.986Z,93.50
2019-04-14T14:41:32.065Z,92.80
2019-04-14T14:44:03.478Z,92.80
2019-04-14T14:46:53.670Z,94.20
2019-04-14T14:49:32.869Z,94.20
2019-04-14T14:52:12.679Z,93.40
2019-04-14T14:54:44.098Z,92.50
2019-04-14T14:57:13.571Z,93.10
2019-04-14T14:59:43.078Z,93.10
2019-04-14T15:02:12.650Z,92.90
2019-04-14T15:04:42.885Z,94.00
2019-04-14T15:07:12.587Z,92.90
2019-04-14T15:09:41.893Z,92.50
2019-04-14T15:12:11.465Z,93.60
2019-04-14T15:14:40.999Z,93.60
2019-04-14T15:17:10.501Z,93.80
2019-04-14T15:19:40.025Z,93.00
2019-04-14T15:22:09.489Z,93.40
2019-04-14T15:24:39.981Z,93.40
2019-04-14T15:27:09.273Z,94.30
2019-04-14T15:29:38.986Z,93.90
2019-04-14T15:32:08.237Z,94.30
2019-04-14T15:34:37.790Z,94.00
2019-04-14T15:37:07.321Z,93.00
2019-04-14T15:39:37.753Z,92.30
2019-04-14T15:42:07.130Z,92.60
2019-04-14T15:44:36.769Z,92.90
2019-04-14T15:47:06.632Z,93.30
2019-04-14T15:49:36.053Z,93.60
2019-04-14T15:52:05.604Z,92.60
2019-04-14T15:54:36.340Z,93.20
2019-04-14T15:57:27.940Z,93.70
2019-04-14T16:00:14.294Z,93.20
2019-04-14T16:03:14.773Z,92.90
2019-04-14T16:06:01.348Z,93.60
2019-04-14T16:08:43.604Z,93.60
2019-04-14T16:11:17.972Z,93.00
2019-04-14T16:14:12.276Z,93.30
2019-04-14T16:16:59.231Z,93.90
2019-04-14T16:19:50.244Z,94.00
2019-04-14T16:22:19.926Z,94.00
2019-04-14T16:24:50.748Z,94.00
2019-04-14T16:27:39.054Z,94.80
2019-04-14T16:30:17.298Z,94.50
2019-04-14T16:33:04.279Z,94.60
2019-04-14T16:35:34.956Z,95.20
2019-04-14T16:38:05.628Z,95.00
2019-04-14T16:40:36.753Z,94.80
2019-04-14T16:43:06.303Z,94.60
2019-04-14T16:45:36.540Z,94.80
2019-04-14T16:48:06.082Z,94.20
2019-04-14T16:50:36.320Z,94.10
2019-04-14T16:53:18.141Z,94.60
2019-04-14T16:56:02.310Z,94.60
2019-04-14T16:58:37.717Z,94.70
2019-04-14T17:01:09.964Z,94.80
2019-04-14T17:03:40.289Z,95.40
2019-04-14T17:06:12.018Z,95.10
2019-04-14T17:08:49.238Z,95.60
2019-04-14T17:11:18.826Z,95.60
2019-04-14T17:14:02.980Z,95.40
2019-04-14T17:16:52.733Z,95.60
2019-04-14T17:19:31.163Z,95.50
2019-04-14T17:22:11.858Z,96.00
2019-04-14T17:25:00.093Z,96.30
2019-04-14T17:27:38.851Z,95.70
2019-04-14T17:30:30.350Z,96.10
2019-04-14T17:33:11.234Z,96.00
2019-04-14T17:36:20.575Z,96.40
2019-04-14T17:39:04.055Z,96.60
2019-04-14T17:41:38.997Z,97.10
2019-04-14T17:44:19.965Z,97.10
2019-04-14T17:47:07.833Z,97.40
2019-04-14T17:49:46.379Z,97.30
2019-04-14T17:52:28.999Z,97.50
2019-04-14T17:55:16.776Z,97.80
2019-04-14T17:58:21.249Z,98.10
2019-04-14T18:01:10.068Z,98.30
2019-04-14T18:03:42.529Z,98.30
2019-04-14T18:06:17.044Z,98.70
2019-04-14T18:09:05.846Z,98.70
2019-04-14T18:11:53.392Z,99.00
2019-04-14T18:14:34.361Z,99.30
2019-04-14T18:17:13.386Z,99.30
2019-04-14T18:19:47.802Z,99.60
2019-04-14T18:22:19.298Z,99.90
2019-04-14T18:24:49.788Z,99.90
2019-04-14T18:27:19.190Z,99.90
2019-04-14T18:29:57.989Z,99.90
2019-04-14T18:32:32.271Z,99.90
2019-04-14T18:35:17.468Z,99.90
2019-04-14T18:38:05.510Z,99.90
2019-04-14T18:40:53.302Z,99.90
2019-04-14T18:43:41.667Z,99.90
2019-04-14T18:46:28.154Z,99.90
2019-04-14T18:49:20.659Z,99.90
2019-04-14T18:51:56.058Z,99.90
2019-04-14T18:54:34.052Z,99.90
2019-04-14T18:57:19.558Z,99.90
2019-04-14T19:00:07.034Z,99.90
2019-04-14T19:02:36.510Z,99.90
2019-04-14T19:05:08.514Z,99.90
2019-04-14T19:07:40.000Z,99.90
2019-04-14T19:10:12.064Z,99.90
2019-04-14T19:12:58.633Z,99.90
2019-04-14T19:15:41.320Z,99.90
2019-04-14T19:18:16.586Z,99.90
2019-04-14T19:20:50.536Z,99.90
2019-04-14T19:23:20.153Z,99.90
2019-04-14T19:25:49.518Z,99.90
2019-04-14T19:28:19.159Z,99.90
2019-04-14T19:30:56.144Z,99.90
2019-04-14T19:33:26.732Z,99.90
2019-04-14T19:35:56.146Z,99.90
2019-04-14T19:38:26.809Z,99.90
2019-04-14T19:40:57.446Z,99.90
2019-04-14T19:43:27.940Z,99.90
2019-04-14T19:45:57.501Z,99.90
2019-04-14T19:48:26.933Z,99.90
2019-04-14T19:51:00.527Z,99.90
2019-04-14T19:53:30.206Z,99.90
2019-04-14T19:56:00.814Z,99.90
2019-04-14T19:58:30.297Z,99.90
2019-04-14T20:00:59.971Z,99.90
2019-04-14T20:03:29.377Z,99.90
2019-04-14T20:05:59.924Z,99.90
2019-04-14T20:08:29.159Z,99.90
2019-04-14T20:10:59.751Z,99.90
2019-04-14T20:13:32.697Z,99.90
2019-04-14T20:16:19.746Z,99.90
2019-04-14T20:19:23.213Z,99.90
2019-04-14T20:22:12.762Z,99.90
2019-04-14T20:24:57.336Z,99.90
2019-04-14T20:27:40.768Z,99.90
2019-04-14T20:30:14.228Z,99.90
2019-04-14T20:32:44.404Z,99.90
2019-04-14T20:35:14.786Z,99.90
2019-04-14T20:37:43.980Z,99.90
2019-04-14T20:40:13.322Z,99.90
2019-04-14T20:42:42.562Z,99.90
2019-04-14T20:45:18.847Z,99.90
2019-04-14T20:47:48.168Z,99.90
2019-04-14T20:50:18.476Z,99.90
2019-04-14T20:52:50.355Z,99.90
2019-04-14T20:55:20.664Z,99.90
2019-04-14T20:57:52.446Z,99.90
2019-04-14T21:00:22.108Z,99.90
2019-04-14T21:03:19.796Z,99.90
2019-04-14T21:06:23.154Z,99.90
2019-04-14T21:09:10.579Z,99.90
2019-04-14T21:12:02.521Z,99.90
2019-04-14T21:14:50.751Z,99.90
2019-04-14T21:17:32.039Z,99.90
2019-04-14T21:20:13.829Z,99.90
2019-04-14T21:22:59.983Z,99.90
2019-04-14T21:25:59.555Z,99.90
2019-04-14T21:28:25.965Z,99.90
2019-04-14T21:31:17.644Z,99.90
2019-04-14T21:33:59.898Z,99.90
2019-04-14T21:36:36.308Z,99.90
2019-04-14T21:39:15.764Z,99.90
2019-04-14T21:41:46.404Z,99.90
2019-04-14T21:44:15.983Z,99.90
2019-04-14T21:46:45.427Z,99.90
2019-04-14T21:49:14.989Z,99.90
2019-04-14T21:52:10.267Z,99.90
2019-04-14T21:54:42.656Z,99.90
2019-04-14T21:57:32.642Z,99.90
2019-04-14T22:00:43.600Z,99.90
2019-04-14T22:03:39.959Z,99.90
2019-04-14T22:06:32.241Z,99.90
2019-04-14T22:09:01.651Z,99.90
2019-04-14T22:11:31.061Z,99.90
2019-04-14T22:14:00.635Z,99.90
2019-04-14T22:16:30.072Z,99.90
2019-04-14T22:18:59.768Z,99.90
2019-04-14T22:21:29.137Z,99.90
2019-04-14T22:24:01.682Z,99.90
2019-04-14T22:26:30.667Z,99.90
2019-04-14T22:29:02.457Z,99.90
2019-04-14T22:31:31.204Z,99.90
2019-04-14T22:34:00.725Z,99.90
2019-04-14T22:36:30.269Z,99.90
2019-04-14T22:38:59.706Z,99.90
2019-04-14T22:41:29.261Z,99.90
2019-04-14T22:43:58.810Z,99.90
2019-04-14T22:46:28.298Z,99.90
2019-04-14T22:48:57.755Z,99.90
2019-04-14T22:51:27.262Z,99.90
2019-04-14T22:53:56.812Z,99.90
2019-04-14T22:56:38.365Z,99.90
2019-04-14T22:58:57.400Z,99.90
2019-04-14T23:01:30.211Z,99.90
2019-04-14T23:04:21.513Z,99.90
2019-04-14T23:07:04.053Z,99.90
2019-04-14T23:09:55.479Z,99.90
2019-04-14T23:12:45.527Z,99.90
2019-04-14T23:15:41.512Z,99.90
2019-04-14T23:18:45.155Z,99.90
2019-04-14T23:21:25.110Z,99.90
2019-04-14T23:24:01.807Z,99.90
2019-04-14T23:26:32.242Z,99.90
2019-04-14T23:29:01.745Z,99.90
2019-04-14T23:31:31.306Z,99.90
2019-04-14T23:34:00.875Z,99.90
2019-04-14T23:36:31.053Z,99.90
2019-04-14T23:39:01.400Z,99.90
2019-04-14T23:41:30.968Z,99.90
2019-04-14T23:44:00.179Z,99.90
2019-04-14T23:46:31.673Z,99.90
2019-04-14T23:49:03.177Z,99.90
2019-04-14T23:51:33.435Z,99.90
2019-04-14T23:54:02.944Z,99.90
2019-04-14T23:56:32.520Z,99.90
2019-04-14T23:59:04.171Z,99.90
